sensor_id;sensor_type;location;lat;lon;timestamp;P1;durP1;ratioP1;P2;durP2;ratioP2
33006;SDS011;19361;51.598;7.650;2023-12-20T00:01:53;19.58;;;14.82;;
33006;SDS011;19361;51.598;7.650;2023-12-20T00:06:53;20.05;;;14.95;;
33006;SDS011;19361;51.598;7.650;2023-12-20T00:11:54;17.85;;;14.48;;
33006;SDS011;19361;51.598;7.650;2023-12-20T00:16:55;21.38;;;13.35;;
33006;SDS011;19361;51.598;7.650;2023-12-20T00:21:55;15.82;;;13.30;;
33006;SDS011;19361;51.598;7.650;2023-12-20T00:26:56;16.83;;;13.68;;
33006;SDS011;19361;51.598;7.650;2023-12-20T00:31:57;16.35;;;13.63;;
33006;SDS011;19361;51.598;7.650;2023-12-20T00:36:57;17.52;;;14.52;;
33006;SDS011;19361;51.598;7.650;2023-12-20T00:41:58;17.20;;;14.18;;
33006;SDS011;19361;51.598;7.650;2023-12-20T00:46:59;21.02;;;14.07;;
33006;SDS011;19361;51.598;7.650;2023-12-20T00:51:59;18.88;;;15.10;;
33006;SDS011;19361;51.598;7.650;2023-12-20T00:57:00;23.45;;;15.65;;
33006;SDS011;19361;51.598;7.650;2023-12-20T01:02:01;21.83;;;15.65;;
33006;SDS011;19361;51.598;7.650;2023-12-20T01:07:02;17.88;;;13.90;;
33006;SDS011;19361;51.598;7.650;2023-12-20T01:12:02;19.85;;;12.68;;
33006;SDS011;19361;51.598;7.650;2023-12-20T01:17:03;17.92;;;12.35;;
33006;SDS011;19361;51.598;7.650;2023-12-20T01:22:04;20.48;;;12.23;;
33006;SDS011;19361;51.598;7.650;2023-12-20T01:27:05;20.55;;;11.25;;
33006;SDS011;19361;51.598;7.650;2023-12-20T01:32:05;17.13;;;12.20;;
33006;SDS011;19361;51.598;7.650;2023-12-20T01:37:06;19.77;;;10.40;;
33006;SDS011;19361;51.598;7.650;2023-12-20T01:42:07;15.80;;;9.25;;
33006;SDS011;19361;51.598;7.650;2023-12-20T01:47:08;15.80;;;9.75;;
33006;SDS011;19361;51.598;7.650;2023-12-20T01:52:09;16.90;;;9.77;;
33006;SDS011;19361;51.598;7.650;2023-12-20T01:57:10;16.10;;;8.07;;
33006;SDS011;19361;51.598;7.650;2023-12-20T02:02:11;12.57;;;7.10;;
33006;SDS011;19361;51.598;7.650;2023-12-20T02:07:12;18.00;;;5.57;;
33006;SDS011;19361;51.598;7.650;2023-12-20T02:12:13;12.02;;;5.63;;
33006;SDS011;19361;51.598;7.650;2023-12-20T02:17:14;14.27;;;5.32;;
33006;SDS011;19361;51.598;7.650;2023-12-20T02:22:16;12.02;;;4.80;;
33006;SDS011;19361;51.598;7.650;2023-12-20T02:27:17;11.90;;;4.25;;
33006;SDS011;19361;51.598;7.650;2023-12-20T02:32:19;18.33;;;5.15;;
33006;SDS011;19361;51.598;7.650;2023-12-20T02:37:21;14.00;;;5.30;;
33006;SDS011;19361;51.598;7.650;2023-12-20T02:42:22;20.30;;;4.90;;
33006;SDS011;19361;51.598;7.650;2023-12-20T02:47:22;21.20;;;5.30;;
33006;SDS011;19361;51.598;7.650;2023-12-20T02:52:23;16.17;;;4.72;;
33006;SDS011;19361;51.598;7.650;2023-12-20T02:57:25;16.40;;;5.15;;
33006;SDS011;19361;51.598;7.650;2023-12-20T03:02:25;13.93;;;5.55;;
33006;SDS011;19361;51.598;7.650;2023-12-20T03:07:26;15.85;;;5.53;;
33006;SDS011;19361;51.598;7.650;2023-12-20T03:12:26;17.30;;;5.45;;
33006;SDS011;19361;51.598;7.650;2023-12-20T03:17:27;20.73;;;5.68;;
33006;SDS011;19361;51.598;7.650;2023-12-20T03:22:28;16.83;;;5.80;;
33006;SDS011;19361;51.598;7.650;2023-12-20T03:27:28;21.33;;;5.90;;
33006;SDS011;19361;51.598;7.650;2023-12-20T03:32:29;22.27;;;5.68;;
33006;SDS011;19361;51.598;7.650;2023-12-20T03:37:30;19.35;;;5.50;;
33006;SDS011;19361;51.598;7.650;2023-12-20T03:42:30;17.52;;;5.97;;
33006;SDS011;19361;51.598;7.650;2023-12-20T03:47:31;19.73;;;5.65;;
33006;SDS011;19361;51.598;7.650;2023-12-20T03:52:32;19.65;;;5.45;;
33006;SDS011;19361;51.598;7.650;2023-12-20T03:57:32;18.20;;;5.88;;
33006;SDS011;19361;51.598;7.650;2023-12-20T04:02:33;19.95;;;5.97;;
33006;SDS011;19361;51.598;7.650;2023-12-20T04:07:34;23.35;;;6.53;;
33006;SDS011;19361;51.598;7.650;2023-12-20T04:12:36;16.70;;;6.43;;
33006;SDS011;19361;51.598;7.650;2023-12-20T04:17:37;24.27;;;6.45;;
33006;SDS011;19361;51.598;7.650;2023-12-20T04:22:37;23.52;;;6.28;;
33006;SDS011;19361;51.598;7.650;2023-12-20T04:27:38;21.33;;;6.28;;
33006;SDS011;19361;51.598;7.650;2023-12-20T04:32:39;15.55;;;5.88;;
33006;SDS011;19361;51.598;7.650;2023-12-20T04:37:39;18.20;;;6.20;;
33006;SDS011;19361;51.598;7.650;2023-12-20T04:42:40;18.95;;;6.18;;
33006;SDS011;19361;51.598;7.650;2023-12-20T04:47:44;20.10;;;6.47;;
33006;SDS011;19361;51.598;7.650;2023-12-20T04:52:46;20.90;;;6.97;;
33006;SDS011;19361;51.598;7.650;2023-12-20T04:57:47;19.40;;;6.68;;
33006;SDS011;19361;51.598;7.650;2023-12-20T05:02:48;17.92;;;6.30;;
33006;SDS011;19361;51.598;7.650;2023-12-20T05:07:48;18.63;;;7.40;;
33006;SDS011;19361;51.598;7.650;2023-12-20T05:12:49;19.80;;;6.65;;
33006;SDS011;19361;51.598;7.650;2023-12-20T05:17:50;25.02;;;7.53;;
33006;SDS011;19361;51.598;7.650;2023-12-20T05:22:50;21.27;;;7.70;;
33006;SDS011;19361;51.598;7.650;2023-12-20T05:27:51;19.63;;;7.75;;
33006;SDS011;19361;51.598;7.650;2023-12-20T05:32:52;19.38;;;8.35;;
33006;SDS011;19361;51.598;7.650;2023-12-20T05:37:52;24.15;;;8.98;;
33006;SDS011;19361;51.598;7.650;2023-12-20T05:42:53;27.60;;;9.13;;
33006;SDS011;19361;51.598;7.650;2023-12-20T05:47:54;25.98;;;8.50;;
33006;SDS011;19361;51.598;7.650;2023-12-20T05:52:55;25.58;;;9.65;;
33006;SDS011;19361;51.598;7.650;2023-12-20T05:57:55;18.88;;;8.35;;
33006;SDS011;19361;51.598;7.650;2023-12-20T06:02:56;24.42;;;9.27;;
33006;SDS011;19361;51.598;7.650;2023-12-20T06:07:57;24.67;;;9.52;;
33006;SDS011;19361;51.598;7.650;2023-12-20T06:13:01;22.50;;;8.98;;
33006;SDS011;19361;51.598;7.650;2023-12-20T06:18:03;27.00;;;8.65;;
33006;SDS011;19361;51.598;7.650;2023-12-20T06:23:04;22.17;;;8.57;;
33006;SDS011;19361;51.598;7.650;2023-12-20T06:28:04;27.05;;;8.90;;
33006;SDS011;19361;51.598;7.650;2023-12-20T06:33:06;31.08;;;8.45;;
33006;SDS011;19361;51.598;7.650;2023-12-20T06:38:07;28.77;;;8.50;;
33006;SDS011;19361;51.598;7.650;2023-12-20T06:43:09;26.30;;;8.25;;
33006;SDS011;19361;51.598;7.650;2023-12-20T06:48:10;29.90;;;8.20;;
33006;SDS011;19361;51.598;7.650;2023-12-20T06:53:13;25.35;;;7.00;;
33006;SDS011;19361;51.598;7.650;2023-12-20T06:58:14;27.48;;;8.15;;
33006;SDS011;19361;51.598;7.650;2023-12-20T07:03:14;26.42;;;6.97;;
33006;SDS011;19361;51.598;7.650;2023-12-20T07:08:15;19.63;;;6.28;;
33006;SDS011;19361;51.598;7.650;2023-12-20T07:13:16;22.25;;;7.30;;
33006;SDS011;19361;51.598;7.650;2023-12-20T07:18:16;19.13;;;5.97;;
33006;SDS011;19361;51.598;7.650;2023-12-20T07:23:17;20.90;;;6.63;;
33006;SDS011;19361;51.598;7.650;2023-12-20T07:28:19;22.15;;;6.82;;
33006;SDS011;19361;51.598;7.650;2023-12-20T07:33:20;19.55;;;6.53;;
33006;SDS011;19361;51.598;7.650;2023-12-20T07:38:21;25.25;;;7.38;;
33006;SDS011;19361;51.598;7.650;2023-12-20T07:43:22;23.17;;;6.00;;
33006;SDS011;19361;51.598;7.650;2023-12-20T07:48:23;26.52;;;7.25;;
33006;SDS011;19361;51.598;7.650;2023-12-20T07:53:23;28.77;;;7.55;;
33006;SDS011;19361;51.598;7.650;2023-12-20T07:58:24;23.40;;;6.35;;
33006;SDS011;19361;51.598;7.650;2023-12-20T08:03:25;23.52;;;7.38;;
33006;SDS011;19361;51.598;7.650;2023-12-20T08:08:25;20.38;;;7.28;;
33006;SDS011;19361;51.598;7.650;2023-12-20T08:13:26;36.38;;;7.40;;
33006;SDS011;19361;51.598;7.650;2023-12-20T08:18:27;23.17;;;6.47;;
33006;SDS011;19361;51.598;7.650;2023-12-20T08:23:27;20.90;;;7.13;;
33006;SDS011;19361;51.598;7.650;2023-12-20T08:28:28;20.02;;;6.72;;
33006;SDS011;19361;51.598;7.650;2023-12-20T08:33:29;19.77;;;6.93;;
33006;SDS011;19361;51.598;7.650;2023-12-20T08:38:29;21.77;;;6.95;;
33006;SDS011;19361;51.598;7.650;2023-12-20T08:43:30;21.95;;;6.40;;
33006;SDS011;19361;51.598;7.650;2023-12-20T08:48:32;28.38;;;6.57;;
33006;SDS011;19361;51.598;7.650;2023-12-20T08:53:32;27.15;;;6.82;;
33006;SDS011;19361;51.598;7.650;2023-12-20T08:58:33;27.33;;;6.85;;
33006;SDS011;19361;51.598;7.650;2023-12-20T09:03:35;22.60;;;6.60;;
33006;SDS011;19361;51.598;7.650;2023-12-20T09:08:36;27.58;;;6.70;;
33006;SDS011;19361;51.598;7.650;2023-12-20T09:13:37;17.83;;;5.60;;
33006;SDS011;19361;51.598;7.650;2023-12-20T09:18:37;17.30;;;5.68;;
33006;SDS011;19361;51.598;7.650;2023-12-20T09:23:38;21.73;;;5.75;;
33006;SDS011;19361;51.598;7.650;2023-12-20T09:28:39;26.08;;;6.95;;
33006;SDS011;19361;51.598;7.650;2023-12-20T09:33:40;14.55;;;4.65;;
33006;SDS011;19361;51.598;7.650;2023-12-20T09:38:41;21.30;;;5.35;;
33006;SDS011;19361;51.598;7.650;2023-12-20T09:43:42;22.50;;;5.60;;
33006;SDS011;19361;51.598;7.650;2023-12-20T09:48:43;28.25;;;5.82;;
33006;SDS011;19361;51.598;7.650;2023-12-20T09:53:45;19.20;;;4.88;;
33006;SDS011;19361;51.598;7.650;2023-12-20T09:58:47;27.35;;;5.63;;
33006;SDS011;19361;51.598;7.650;2023-12-20T10:03:48;30.98;;;6.57;;
33006;SDS011;19361;51.598;7.650;2023-12-20T10:08:54;21.85;;;5.82;;
33006;SDS011;19361;51.598;7.650;2023-12-20T10:14:01;24.90;;;5.30;;
33006;SDS011;19361;51.598;7.650;2023-12-20T10:19:02;21.40;;;5.53;;
33006;SDS011;19361;51.598;7.650;2023-12-20T10:24:02;21.85;;;5.15;;
33006;SDS011;19361;51.598;7.650;2023-12-20T10:29:03;19.10;;;4.93;;
33006;SDS011;19361;51.598;7.650;2023-12-20T10:34:05;22.25;;;4.88;;
33006;SDS011;19361;51.598;7.650;2023-12-20T10:39:06;25.65;;;5.50;;
33006;SDS011;19361;51.598;7.650;2023-12-20T10:44:09;24.80;;;5.43;;
33006;SDS011;19361;51.598;7.650;2023-12-20T10:49:11;15.35;;;4.72;;
33006;SDS011;19361;51.598;7.650;2023-12-20T10:54:13;27.45;;;5.60;;
33006;SDS011;19361;51.598;7.650;2023-12-20T10:59:14;19.05;;;5.00;;
33006;SDS011;19361;51.598;7.650;2023-12-20T11:04:22;20.55;;;4.70;;
33006;SDS011;19361;51.598;7.650;2023-12-20T11:10:29;24.95;;;6.22;;
33006;SDS011;19361;51.598;7.650;2023-12-20T11:15:37;29.55;;;6.13;;
33006;SDS011;19361;51.598;7.650;2023-12-20T11:20:39;22.05;;;6.10;;
33006;SDS011;19361;51.598;7.650;2023-12-20T11:25:48;20.08;;;6.97;;
33006;SDS011;19361;51.598;7.650;2023-12-20T11:30:52;16.67;;;6.15;;
33006;SDS011;19361;51.598;7.650;2023-12-20T11:35:55;22.02;;;6.07;;
33006;SDS011;19361;51.598;7.650;2023-12-20T11:40:57;14.80;;;5.60;;
33006;SDS011;19361;51.598;7.650;2023-12-20T11:46:04;20.40;;;5.65;;
33006;SDS011;19361;51.598;7.650;2023-12-20T11:51:13;18.30;;;5.25;;
33006;SDS011;19361;51.598;7.650;2023-12-20T11:56:13;18.05;;;6.10;;
33006;SDS011;19361;51.598;7.650;2023-12-20T12:01:14;18.77;;;5.65;;
33006;SDS011;19361;51.598;7.650;2023-12-20T12:06:15;17.73;;;5.13;;
33006;SDS011;19361;51.598;7.650;2023-12-20T12:11:16;13.40;;;4.72;;
33006;SDS011;19361;51.598;7.650;2023-12-20T12:16:17;14.73;;;5.60;;
33006;SDS011;19361;51.598;7.650;2023-12-20T12:21:21;15.80;;;4.97;;
33006;SDS011;19361;51.598;7.650;2023-12-20T12:26:24;21.45;;;5.60;;
33006;SDS011;19361;51.598;7.650;2023-12-20T12:31:25;17.33;;;5.35;;
33006;SDS011;19361;51.598;7.650;2023-12-20T12:36:27;17.90;;;5.20;;
33006;SDS011;19361;51.598;7.650;2023-12-20T12:41:29;19.77;;;5.95;;
33006;SDS011;19361;51.598;7.650;2023-12-20T12:46:29;16.92;;;5.50;;
33006;SDS011;19361;51.598;7.650;2023-12-20T12:51:30;20.45;;;5.72;;
33006;SDS011;19361;51.598;7.650;2023-12-20T12:56:31;14.55;;;5.43;;
33006;SDS011;19361;51.598;7.650;2023-12-20T13:01:32;22.75;;;6.13;;
33006;SDS011;19361;51.598;7.650;2023-12-20T13:06:33;17.05;;;6.22;;
33006;SDS011;19361;51.598;7.650;2023-12-20T13:11:34;22.45;;;6.35;;
33006;SDS011;19361;51.598;7.650;2023-12-20T13:16:34;17.80;;;6.40;;
33006;SDS011;19361;51.598;7.650;2023-12-20T13:21:35;19.27;;;6.25;;
33006;SDS011;19361;51.598;7.650;2023-12-20T13:26:36;23.60;;;6.65;;
33006;SDS011;19361;51.598;7.650;2023-12-20T13:31:37;23.98;;;6.13;;
33006;SDS011;19361;51.598;7.650;2023-12-20T13:36:40;23.63;;;6.22;;
33006;SDS011;19361;51.598;7.650;2023-12-20T13:41:41;27.45;;;5.95;;
33006;SDS011;19361;51.598;7.650;2023-12-20T13:46:42;22.65;;;6.30;;
33006;SDS011;19361;51.598;7.650;2023-12-20T13:51:43;24.02;;;6.68;;
33006;SDS011;19361;51.598;7.650;2023-12-20T13:56:44;22.55;;;5.78;;
33006;SDS011;19361;51.598;7.650;2023-12-20T14:01:44;19.33;;;6.28;;
33006;SDS011;19361;51.598;7.650;2023-12-20T14:06:45;18.52;;;5.93;;
33006;SDS011;19361;51.598;7.650;2023-12-20T14:11:46;22.83;;;7.50;;
33006;SDS011;19361;51.598;7.650;2023-12-20T14:16:46;16.40;;;6.57;;
33006;SDS011;19361;51.598;7.650;2023-12-20T14:21:47;23.73;;;6.35;;
33006;SDS011;19361;51.598;7.650;2023-12-20T14:26:48;22.30;;;6.30;;
33006;SDS011;19361;51.598;7.650;2023-12-20T14:31:49;18.70;;;6.18;;
33006;SDS011;19361;51.598;7.650;2023-12-20T14:36:49;14.57;;;6.22;;
33006;SDS011;19361;51.598;7.650;2023-12-20T14:41:50;18.17;;;7.13;;
33006;SDS011;19361;51.598;7.650;2023-12-20T14:46:51;14.63;;;6.60;;
33006;SDS011;19361;51.598;7.650;2023-12-20T14:51:51;18.08;;;7.30;;
33006;SDS011;19361;51.598;7.650;2023-12-20T14:56:52;14.10;;;7.07;;
33006;SDS011;19361;51.598;7.650;2023-12-20T15:01:53;17.90;;;8.32;;
33006;SDS011;19361;51.598;7.650;2023-12-20T15:06:54;13.98;;;7.43;;
33006;SDS011;19361;51.598;7.650;2023-12-20T15:11:55;12.55;;;6.57;;
33006;SDS011;19361;51.598;7.650;2023-12-20T15:16:56;15.88;;;6.75;;
33006;SDS011;19361;51.598;7.650;2023-12-20T15:21:56;15.45;;;6.95;;
33006;SDS011;19361;51.598;7.650;2023-12-20T15:26:59;18.40;;;7.15;;
33006;SDS011;19361;51.598;7.650;2023-12-20T15:31:59;20.52;;;7.20;;
33006;SDS011;19361;51.598;7.650;2023-12-20T15:37:00;14.48;;;7.13;;
33006;SDS011;19361;51.598;7.650;2023-12-20T15:42:01;18.13;;;7.53;;
33006;SDS011;19361;51.598;7.650;2023-12-20T15:47:01;20.60;;;8.45;;
33006;SDS011;19361;51.598;7.650;2023-12-20T15:52:02;19.13;;;8.05;;
33006;SDS011;19361;51.598;7.650;2023-12-20T15:57:03;23.92;;;9.73;;
33006;SDS011;19361;51.598;7.650;2023-12-20T16:02:04;14.15;;;7.30;;
33006;SDS011;19361;51.598;7.650;2023-12-20T16:07:05;21.38;;;7.45;;
33006;SDS011;19361;51.598;7.650;2023-12-20T16:12:05;20.08;;;7.20;;
33006;SDS011;19361;51.598;7.650;2023-12-20T16:17:06;25.27;;;6.97;;
33006;SDS011;19361;51.598;7.650;2023-12-20T16:22:07;19.33;;;6.32;;
33006;SDS011;19361;51.598;7.650;2023-12-20T16:27:08;16.48;;;6.78;;
33006;SDS011;19361;51.598;7.650;2023-12-20T16:32:09;16.42;;;6.30;;
33006;SDS011;19361;51.598;7.650;2023-12-20T16:37:09;19.65;;;7.25;;
33006;SDS011;19361;51.598;7.650;2023-12-20T16:42:10;22.23;;;7.65;;
33006;SDS011;19361;51.598;7.650;2023-12-20T16:47:11;20.45;;;7.22;;
33006;SDS011;19361;51.598;7.650;2023-12-20T16:52:11;18.52;;;7.72;;
33006;SDS011;19361;51.598;7.650;2023-12-20T16:57:12;21.02;;;7.65;;
33006;SDS011;19361;51.598;7.650;2023-12-20T17:02:13;17.05;;;7.20;;
33006;SDS011;19361;51.598;7.650;2023-12-20T17:07:13;17.00;;;6.93;;
33006;SDS011;19361;51.598;7.650;2023-12-20T17:12:14;19.13;;;7.78;;
33006;SDS011;19361;51.598;7.650;2023-12-20T17:17:15;19.75;;;7.20;;
33006;SDS011;19361;51.598;7.650;2023-12-20T17:22:16;22.67;;;7.53;;
33006;SDS011;19361;51.598;7.650;2023-12-20T17:27:16;20.35;;;7.82;;
33006;SDS011;19361;51.598;7.650;2023-12-20T17:32:17;18.65;;;7.32;;
33006;SDS011;19361;51.598;7.650;2023-12-20T17:37:18;21.45;;;8.70;;
33006;SDS011;19361;51.598;7.650;2023-12-20T17:42:18;18.23;;;8.40;;
33006;SDS011;19361;51.598;7.650;2023-12-20T17:47:19;21.73;;;9.57;;
33006;SDS011;19361;51.598;7.650;2023-12-20T17:52:20;22.58;;;10.52;;
33006;SDS011;19361;51.598;7.650;2023-12-20T17:57:20;25.20;;;10.93;;
33006;SDS011;19361;51.598;7.650;2023-12-20T18:02:23;26.48;;;9.80;;
33006;SDS011;19361;51.598;7.650;2023-12-20T18:07:24;31.63;;;11.13;;
33006;SDS011;19361;51.598;7.650;2023-12-20T18:12:24;25.70;;;10.43;;
33006;SDS011;19361;51.598;7.650;2023-12-20T18:17:28;19.10;;;9.80;;
33006;SDS011;19361;51.598;7.650;2023-12-20T18:22:29;19.52;;;10.40;;
33006;SDS011;19361;51.598;7.650;2023-12-20T18:27:30;23.73;;;10.50;;
33006;SDS011;19361;51.598;7.650;2023-12-20T18:32:31;23.13;;;9.57;;
33006;SDS011;19361;51.598;7.650;2023-12-20T18:37:33;24.55;;;9.85;;
33006;SDS011;19361;51.598;7.650;2023-12-20T18:42:34;22.45;;;10.02;;
33006;SDS011;19361;51.598;7.650;2023-12-20T18:47:35;24.00;;;10.65;;
33006;SDS011;19361;51.598;7.650;2023-12-20T18:52:36;22.38;;;9.65;;
33006;SDS011;19361;51.598;7.650;2023-12-20T18:57:37;23.48;;;9.18;;
33006;SDS011;19361;51.598;7.650;2023-12-20T19:02:37;25.63;;;11.13;;
33006;SDS011;19361;51.598;7.650;2023-12-20T19:07:38;21.33;;;10.07;;
33006;SDS011;19361;51.598;7.650;2023-12-20T19:12:39;25.42;;;9.50;;
33006;SDS011;19361;51.598;7.650;2023-12-20T19:17:39;23.58;;;11.07;;
33006;SDS011;19361;51.598;7.650;2023-12-20T19:22:40;24.63;;;9.02;;
33006;SDS011;19361;51.598;7.650;2023-12-20T19:27:41;18.13;;;8.68;;
33006;SDS011;19361;51.598;7.650;2023-12-20T19:32:43;20.83;;;9.40;;
33006;SDS011;19361;51.598;7.650;2023-12-20T19:37:45;24.80;;;9.25;;
33006;SDS011;19361;51.598;7.650;2023-12-20T19:42:45;15.23;;;9.07;;
33006;SDS011;19361;51.598;7.650;2023-12-20T19:47:49;21.13;;;9.35;;
33006;SDS011;19361;51.598;7.650;2023-12-20T19:52:51;27.10;;;9.95;;
33006;SDS011;19361;51.598;7.650;2023-12-20T19:57:52;15.70;;;8.55;;
33006;SDS011;19361;51.598;7.650;2023-12-20T20:02:55;17.60;;;9.07;;
33006;SDS011;19361;51.598;7.650;2023-12-20T20:07:56;20.38;;;8.65;;
33006;SDS011;19361;51.598;7.650;2023-12-20T20:12:57;15.00;;;7.50;;
33006;SDS011;19361;51.598;7.650;2023-12-20T20:17:57;14.85;;;8.23;;
33006;SDS011;19361;51.598;7.650;2023-12-20T20:22:58;16.10;;;8.27;;
33006;SDS011;19361;51.598;7.650;2023-12-20T20:27:59;17.08;;;8.60;;
33006;SDS011;19361;51.598;7.650;2023-12-20T20:32:59;12.88;;;8.07;;
33006;SDS011;19361;51.598;7.650;2023-12-20T20:38:00;16.23;;;8.20;;
33006;SDS011;19361;51.598;7.650;2023-12-20T20:43:01;13.07;;;6.97;;
33006;SDS011;19361;51.598;7.650;2023-12-20T20:48:02;16.55;;;7.00;;
33006;SDS011;19361;51.598;7.650;2023-12-20T20:53:04;11.07;;;6.35;;
33006;SDS011;19361;51.598;7.650;2023-12-20T20:58:04;11.23;;;6.45;;
33006;SDS011;19361;51.598;7.650;2023-12-20T21:03:05;8.85;;;5.55;;
33006;SDS011;19361;51.598;7.650;2023-12-20T21:08:06;8.55;;;5.53;;
33006;SDS011;19361;51.598;7.650;2023-12-20T21:13:07;8.50;;;5.85;;
33006;SDS011;19361;51.598;7.650;2023-12-20T21:18:08;6.18;;;4.78;;
33006;SDS011;19361;51.598;7.650;2023-12-20T21:23:10;12.50;;;5.07;;
33006;SDS011;19361;51.598;7.650;2023-12-20T21:28:10;6.72;;;4.10;;
33006;SDS011;19361;51.598;7.650;2023-12-20T21:33:11;8.57;;;4.75;;
33006;SDS011;19361;51.598;7.650;2023-12-20T21:38:13;6.70;;;5.03;;
33006;SDS011;19361;51.598;7.650;2023-12-20T21:43:13;6.78;;;4.40;;
33006;SDS011;19361;51.598;7.650;2023-12-20T21:48:14;8.65;;;4.68;;
33006;SDS011;19361;51.598;7.650;2023-12-20T21:53:15;7.38;;;3.40;;
33006;SDS011;19361;51.598;7.650;2023-12-20T21:58:16;4.45;;;3.17;;
33006;SDS011;19361;51.598;7.650;2023-12-20T22:03:16;8.80;;;2.95;;
33006;SDS011;19361;51.598;7.650;2023-12-20T22:08:17;4.93;;;2.97;;
33006;SDS011;19361;51.598;7.650;2023-12-20T22:13:18;2.92;;;2.50;;
33006;SDS011;19361;51.598;7.650;2023-12-20T22:18:19;5.45;;;2.78;;
33006;SDS011;19361;51.598;7.650;2023-12-20T22:23:19;4.10;;;2.60;;
33006;SDS011;19361;51.598;7.650;2023-12-20T22:28:20;4.05;;;2.30;;
33006;SDS011;19361;51.598;7.650;2023-12-20T22:33:20;2.60;;;2.35;;
33006;SDS011;19361;51.598;7.650;2023-12-20T22:38:21;3.08;;;2.70;;
33006;SDS011;19361;51.598;7.650;2023-12-20T22:43:22;3.70;;;2.97;;
33006;SDS011;19361;51.598;7.650;2023-12-20T22:48:23;4.15;;;2.80;;
33006;SDS011;19361;51.598;7.650;2023-12-20T22:53:24;5.05;;;3.08;;
33006;SDS011;19361;51.598;7.650;2023-12-20T22:58:25;3.10;;;2.80;;
33006;SDS011;19361;51.598;7.650;2023-12-20T23:03:26;4.13;;;3.17;;
33006;SDS011;19361;51.598;7.650;2023-12-20T23:08:26;3.90;;;3.13;;
33006;SDS011;19361;51.598;7.650;2023-12-20T23:13:27;4.82;;;3.90;;
33006;SDS011;19361;51.598;7.650;2023-12-20T23:18:28;7.20;;;3.58;;
33006;SDS011;19361;51.598;7.650;2023-12-20T23:23:28;4.32;;;3.92;;
33006;SDS011;19361;51.598;7.650;2023-12-20T23:28:29;5.15;;;3.80;;
33006;SDS011;19361;51.598;7.650;2023-12-20T23:33:30;10.18;;;3.80;;
33006;SDS011;19361;51.598;7.650;2023-12-20T23:38:30;6.53;;;3.85;;
33006;SDS011;19361;51.598;7.650;2023-12-20T23:43:32;4.25;;;3.78;;
33006;SDS011;19361;51.598;7.650;2023-12-20T23:48:32;4.55;;;3.40;;
33006;SDS011;19361;51.598;7.650;2023-12-20T23:53:33;4.93;;;3.40;;
33006;SDS011;19361;51.598;7.650;2023-12-20T23:58:34;4.15;;;3.53;;
